createdAt,value
2019-05-19T00:01:13.065Z,57.75
2019-05-19T00:03:46.425Z,55.60
2019-05-19T00:06:19.497Z,55.50
2019-05-19T00:08:52.458Z,52.60
2019-05-19T00:11:25.516Z,58.25
2019-05-19T00:13:58.494Z,58.25
2019-05-19T00:16:32.052Z,58.25
2019-05-19T00:19:05.078Z,58.25
2019-05-19T00:21:38.115Z,72.00
2019-05-19T00:24:11.080Z,73.25
2019-05-19T00:26:44.147Z,67.25
2019-05-19T00:29:17.117Z,62.75
2019-05-19T00:31:50.105Z,71.00
2019-05-19T00:34:23.094Z,59.50
2019-05-19T00:36:56.005Z,53.75
2019-05-19T00:39:28.904Z,59.00
2019-05-19T00:42:02.312Z,59.60
2019-05-19T00:44:35.263Z,57.25
2019-05-19T00:47:08.372Z,55.50
2019-05-19T00:49:41.885Z,58.75
2019-05-19T00:52:15.083Z,63.00
2019-05-19T00:54:48.358Z,56.50
2019-05-19T00:57:22.521Z,57.50
2019-05-19T00:59:56.405Z,64.25
2019-05-19T01:02:29.441Z,58.50
2019-05-19T01:05:02.456Z,59.20
2019-05-19T01:07:35.616Z,58.75
2019-05-19T01:10:09.275Z,55.50
2019-05-19T01:12:42.390Z,56.00
2019-05-19T01:15:16.781Z,51.60
2019-05-19T01:17:49.749Z,56.75
2019-05-19T01:20:22.926Z,55.25
2019-05-19T01:22:55.876Z,59.00
2019-05-19T01:25:28.816Z,62.75
2019-05-19T01:28:01.741Z,59.00
2019-05-19T01:30:34.806Z,60.50
2019-05-19T01:33:07.843Z,58.50
2019-05-19T01:35:41.154Z,62.00
2019-05-19T01:38:14.169Z,59.00
2019-05-19T01:40:47.538Z,65.00
2019-05-19T01:43:20.446Z,68.75
2019-05-19T01:45:53.369Z,64.75
2019-05-19T01:48:27.990Z,70.50
2019-05-19T01:51:01.267Z,69.50
2019-05-19T01:53:34.276Z,75.50
2019-05-19T01:56:07.269Z,68.50
2019-05-19T01:58:40.497Z,72.75
2019-05-19T02:01:13.443Z,73.00
2019-05-19T02:03:46.455Z,73.25
2019-05-19T02:06:19.756Z,64.50
2019-05-19T02:08:52.959Z,65.25
2019-05-19T02:11:26.556Z,65.75
2019-05-19T02:13:59.502Z,75.75
2019-05-19T02:16:32.539Z,61.25
2019-05-19T02:19:05.720Z,64.75
2019-05-19T02:21:38.877Z,65.25
2019-05-19T02:24:12.064Z,62.25
2019-05-19T02:26:45.565Z,62.00
2019-05-19T02:29:18.779Z,65.00
2019-05-19T02:31:51.974Z,67.50
2019-05-19T02:34:24.820Z,70.75
2019-05-19T02:36:58.075Z,65.75
2019-05-19T02:39:30.984Z,65.00
2019-05-19T02:42:05.134Z,68.00
2019-05-19T02:44:38.954Z,65.25
2019-05-19T02:47:13.733Z,68.00
2019-05-19T02:49:48.544Z,69.25
2019-05-19T02:52:22.521Z,67.25
2019-05-19T02:54:58.507Z,68.50
2019-05-19T02:57:32.366Z,66.50
2019-05-19T03:00:06.023Z,66.25
2019-05-19T03:02:38.937Z,60.25
2019-05-19T03:05:12.107Z,58.75
2019-05-19T03:07:45.353Z,61.50
2019-05-19T03:10:18.402Z,67.50
2019-05-19T03:12:51.332Z,64.25
2019-05-19T03:15:24.240Z,65.50
2019-05-19T03:17:57.223Z,59.25
2019-05-19T03:20:30.415Z,66.00
2019-05-19T03:23:03.330Z,55.25
2019-05-19T03:25:36.223Z,59.50
2019-05-19T03:28:09.187Z,63.50
2019-05-19T03:30:42.086Z,54.50
2019-05-19T03:33:15.054Z,68.50
2019-05-19T03:35:47.980Z,61.00
2019-05-19T03:38:21.354Z,65.75
2019-05-19T03:40:54.510Z,63.50
2019-05-19T03:43:27.430Z,67.75
2019-05-19T03:46:00.564Z,60.00
2019-05-19T03:48:33.930Z,58.75
2019-05-19T03:51:06.937Z,58.25
2019-05-19T03:53:39.851Z,68.00
2019-05-19T03:56:12.812Z,59.50
2019-05-19T03:58:45.740Z,62.25
2019-05-19T04:01:18.703Z,63.00
2019-05-19T04:03:51.624Z,68.50
2019-05-19T04:06:24.607Z,64.75
2019-05-19T04:08:57.564Z,66.00
2019-05-19T04:11:30.568Z,63.25
2019-05-19T04:14:03.665Z,70.25
2019-05-19T04:16:36.952Z,68.25
2019-05-19T04:19:10.250Z,61.50
2019-05-19T04:21:48.601Z,69.25
2019-05-19T04:24:17.990Z,70.25
2019-05-19T04:26:50.890Z,69.25
2019-05-19T04:29:24.351Z,72.00
2019-05-19T04:31:57.262Z,67.75
2019-05-19T04:34:30.171Z,65.50
2019-05-19T04:37:03.235Z,69.50
2019-05-19T04:39:36.481Z,65.00
2019-05-19T04:42:09.462Z,69.50
2019-05-19T04:44:42.397Z,68.50
2019-05-19T04:47:15.399Z,68.50
2019-05-19T04:49:48.298Z,67.00
2019-05-19T04:52:21.240Z,60.00
2019-05-19T04:54:54.704Z,63.50
2019-05-19T04:57:27.599Z,58.50
2019-05-19T05:00:00.506Z,57.75
2019-05-19T05:02:33.394Z,65.00
2019-05-19T05:05:07.584Z,64.25
2019-05-19T05:07:40.682Z,63.75
2019-05-19T05:10:14.082Z,60.75
2019-05-19T05:12:46.915Z,57.75
2019-05-19T05:15:19.835Z,57.50
2019-05-19T05:17:52.983Z,53.60
2019-05-19T05:20:25.881Z,54.00
2019-05-19T05:22:58.835Z,54.20
2019-05-19T05:25:31.766Z,53.00
2019-05-19T05:28:04.567Z,50.40
2019-05-19T05:30:37.718Z,51.40
2019-05-19T05:33:10.576Z,54.80
2019-05-19T05:35:43.464Z,56.00
2019-05-19T05:38:16.649Z,54.40
2019-05-19T05:40:49.537Z,52.60
2019-05-19T05:43:22.817Z,60.20
2019-05-19T05:45:55.694Z,57.60
2019-05-19T05:48:28.553Z,51.20
2019-05-19T05:51:01.702Z,53.80
2019-05-19T05:53:34.527Z,51.80
2019-05-19T05:56:07.475Z,52.20
2019-05-19T05:58:40.325Z,58.00
2019-05-19T06:01:13.458Z,53.60
2019-05-19T06:03:46.621Z,54.40
2019-05-19T06:06:20.346Z,59.40
2019-05-19T06:08:53.205Z,53.00
2019-05-19T06:11:26.142Z,57.00
2019-05-19T06:13:59.007Z,53.00
2019-05-19T06:16:31.890Z,53.00
2019-05-19T06:19:04.818Z,59.40
2019-05-19T06:21:37.958Z,64.80
2019-05-19T06:24:10.905Z,58.00
2019-05-19T06:26:43.757Z,62.40
2019-05-19T06:29:16.637Z,61.60
2019-05-19T06:31:49.828Z,56.60
2019-05-19T06:34:22.684Z,56.80
2019-05-19T06:36:55.538Z,60.40
2019-05-19T06:39:28.400Z,54.40
2019-05-19T06:42:01.385Z,52.40
2019-05-19T06:44:34.250Z,63.80
2019-05-19T06:47:07.110Z,60.60
2019-05-19T06:49:40.226Z,54.20
2019-05-19T06:52:13.091Z,56.80
2019-05-19T06:54:46.270Z,56.80
2019-05-19T06:57:19.107Z,57.60
2019-05-19T06:59:52.249Z,51.20
2019-05-19T07:02:25.419Z,52.60
2019-05-19T07:04:58.286Z,57.20
2019-05-19T07:07:31.121Z,51.00
2019-05-19T07:10:04.740Z,51.20
2019-05-19T07:12:37.646Z,51.80
2019-05-19T07:15:10.977Z,51.20
2019-05-19T07:17:44.086Z,52.20
2019-05-19T07:20:17.214Z,50.20
2019-05-19T07:22:50.074Z,53.00
2019-05-19T07:25:23.170Z,53.80
2019-05-19T07:27:56.322Z,51.80
2019-05-19T07:30:29.172Z,51.60
2019-05-19T07:33:02.017Z,49.40
2019-05-19T07:35:34.874Z,50.00
2019-05-19T07:38:07.824Z,50.20
2019-05-19T07:40:40.825Z,51.00
2019-05-19T07:43:13.700Z,50.40
2019-05-19T07:45:46.850Z,49.60
2019-05-19T07:48:19.687Z,49.40
2019-05-19T07:50:52.556Z,49.40
2019-05-19T07:53:25.391Z,48.60
2019-05-19T07:55:58.282Z,47.60
2019-05-19T07:58:31.128Z,47.60
2019-05-19T08:01:04.069Z,51.20
2019-05-19T08:03:36.933Z,49.80
2019-05-19T08:06:10.238Z,50.20
2019-05-19T08:08:43.065Z,48.00
2019-05-19T08:11:15.899Z,47.00
2019-05-19T08:13:48.835Z,48.20
2019-05-19T08:16:21.833Z,51.20
2019-05-19T08:18:54.685Z,46.80
2019-05-19T08:21:27.789Z,46.80
2019-05-19T08:24:01.350Z,47.40
2019-05-19T08:26:34.700Z,48.20
2019-05-19T08:29:08.081Z,46.80
2019-05-19T08:31:41.001Z,47.60
2019-05-19T08:34:13.877Z,46.00
2019-05-19T08:36:46.773Z,45.80
2019-05-19T08:39:19.627Z,45.80
2019-05-19T08:41:52.808Z,47.00
2019-05-19T08:44:25.659Z,43.80
2019-05-19T08:46:58.489Z,45.80
2019-05-19T08:49:31.354Z,45.20
2019-05-19T08:52:04.427Z,45.00
2019-05-19T08:54:37.268Z,41.20
2019-05-19T08:57:10.109Z,43.40
2019-05-19T08:59:43.186Z,44.80
2019-05-19T09:02:16.076Z,41.80
2019-05-19T09:04:49.282Z,42.60
2019-05-19T09:07:22.196Z,41.40
2019-05-19T09:09:55.053Z,42.80
2019-05-19T09:12:27.903Z,41.20
2019-05-19T09:15:00.763Z,42.00
2019-05-19T09:17:33.688Z,41.60
2019-05-19T09:20:06.824Z,39.80
2019-05-19T09:22:39.673Z,39.80
2019-05-19T09:25:13.101Z,39.20
2019-05-19T09:27:46.085Z,37.80
2019-05-19T09:30:19.260Z,37.80
2019-05-19T09:32:52.135Z,40.40
2019-05-19T09:35:24.969Z,38.40
2019-05-19T09:37:58.375Z,39.80
2019-05-19T09:40:31.225Z,38.00
2019-05-19T09:43:04.191Z,41.00
2019-05-19T09:45:37.065Z,40.40
2019-05-19T09:48:09.902Z,40.20
2019-05-19T09:50:42.766Z,44.80
2019-05-19T09:53:15.602Z,41.60
2019-05-19T09:55:48.705Z,41.80
2019-05-19T09:58:21.799Z,37.80
2019-05-19T10:00:55.013Z,39.00
2019-05-19T10:03:27.852Z,39.80
2019-05-19T10:06:01.011Z,40.60
2019-05-19T10:08:46.326Z,38.20
2019-05-19T10:12:03.215Z,38.40
2019-05-19T10:14:36.120Z,40.60
2019-05-19T10:17:08.977Z,41.00
2019-05-19T10:19:41.830Z,39.00
2019-05-19T10:22:14.692Z,39.80
2019-05-19T10:25:04.073Z,41.20
2019-05-19T10:27:22.321Z,37.00
2019-05-19T10:29:55.158Z,36.20
2019-05-19T10:32:28.090Z,39.80
2019-05-19T10:35:01.007Z,37.00
2019-05-19T10:37:33.930Z,38.60
2019-05-19T10:40:07.260Z,38.40
2019-05-19T10:42:40.085Z,39.00
2019-05-19T10:45:13.165Z,37.40
2019-05-19T10:47:46.029Z,38.80
2019-05-19T10:50:18.855Z,36.20
2019-05-19T10:52:51.789Z,38.20
2019-05-19T10:55:36.267Z,39.40
2019-05-19T10:57:59.589Z,40.60
2019-05-19T11:00:32.754Z,54.20
2019-05-19T11:03:05.852Z,40.80
2019-05-19T11:05:38.705Z,38.80
2019-05-19T11:08:11.623Z,37.00
2019-05-19T11:10:44.535Z,36.20
2019-05-19T11:13:17.748Z,38.80
2019-05-19T11:15:50.741Z,36.80
2019-05-19T11:18:23.838Z,35.40
2019-05-19T11:20:56.811Z,34.60
2019-05-19T11:23:29.716Z,35.80
2019-05-19T11:26:02.627Z,33.80
2019-05-19T11:28:35.711Z,37.00
2019-05-19T11:31:08.536Z,35.60
2019-05-19T11:33:41.424Z,38.60
2019-05-19T11:36:14.283Z,38.40
2019-05-19T11:38:47.197Z,34.60
2019-05-19T11:41:20.402Z,37.20
2019-05-19T11:43:53.414Z,37.60
2019-05-19T11:46:26.538Z,40.40
2019-05-19T11:48:59.427Z,39.00
2019-05-19T11:51:32.279Z,40.40
2019-05-19T11:54:05.144Z,39.80
2019-05-19T11:56:38.002Z,39.20
2019-05-19T11:59:10.838Z,36.40
2019-05-19T12:01:44.052Z,37.80
2019-05-19T12:04:16.890Z,33.80
2019-05-19T12:06:49.745Z,32.40
2019-05-19T12:09:22.629Z,31.40
2019-05-19T12:11:55.801Z,29.20
2019-05-19T12:14:29.171Z,24.60
2019-05-19T12:17:02.033Z,26.00
2019-05-19T12:19:35.112Z,19.20
2019-05-19T12:22:08.017Z,21.40
2019-05-19T12:24:40.862Z,23.00
2019-05-19T12:27:13.842Z,24.60
2019-05-19T12:29:47.016Z,22.60
2019-05-19T12:32:19.926Z,25.60
2019-05-19T12:34:52.826Z,30.00
2019-05-19T12:37:25.993Z,26.60
2019-05-19T12:39:59.377Z,31.00
2019-05-19T12:42:32.484Z,30.20
2019-05-19T12:45:05.776Z,25.40
2019-05-19T12:47:38.661Z,28.00
2019-05-19T12:50:12.148Z,26.40
2019-05-19T12:52:45.097Z,27.00
2019-05-19T12:55:18.093Z,24.80
2019-05-19T12:57:50.942Z,23.00
2019-05-19T13:00:23.857Z,20.40
2019-05-19T13:02:56.710Z,24.80
2019-05-19T13:05:29.622Z,20.60
2019-05-19T13:08:02.472Z,15.00
2019-05-19T13:10:35.308Z,16.80
2019-05-19T13:13:08.235Z,15.40
2019-05-19T13:15:41.070Z,11.00
2019-05-19T13:18:13.928Z,11.60
2019-05-19T13:20:46.775Z,12.20
2019-05-19T13:23:19.627Z,15.20
2019-05-19T13:25:52.465Z,12.00
2019-05-19T13:28:25.590Z,14.00
2019-05-19T13:30:58.478Z,18.40
2019-05-19T13:33:31.750Z,14.40
2019-05-19T13:36:04.738Z,15.60
2019-05-19T13:38:37.605Z,14.40
2019-05-19T13:41:10.491Z,20.60
2019-05-19T13:43:43.349Z,16.60
2019-05-19T13:46:16.771Z,16.80
2019-05-19T13:48:49.911Z,15.20
2019-05-19T13:51:22.837Z,15.60
2019-05-19T13:53:55.720Z,14.40
2019-05-19T13:56:28.561Z,13.00
2019-05-19T13:59:01.404Z,12.00
2019-05-19T14:01:34.318Z,12.40
2019-05-19T14:04:07.172Z,11.80
2019-05-19T14:06:40.015Z,13.00
2019-05-19T14:09:15.240Z,13.00
2019-05-19T14:11:47.805Z,14.60
2019-05-19T14:14:20.989Z,9.80
2019-05-19T14:16:53.818Z,11.80
2019-05-19T14:19:26.686Z,11.20
2019-05-19T14:21:59.541Z,12.40
2019-05-19T14:24:32.401Z,26.20
2019-05-19T14:27:05.237Z,35.00
2019-05-19T14:29:38.092Z,35.20
2019-05-19T14:32:10.939Z,34.80
2019-05-19T14:34:44.117Z,35.80
2019-05-19T14:37:17.062Z,34.20
2019-05-19T14:39:50.041Z,34.80
2019-05-19T14:42:22.874Z,36.40
2019-05-19T14:44:55.732Z,36.80
2019-05-19T14:47:28.605Z,35.20
2019-05-19T14:50:01.521Z,36.20
2019-05-19T14:52:34.538Z,37.00
2019-05-19T14:55:07.526Z,36.40
2019-05-19T14:57:44.913Z,36.00
2019-05-19T15:00:15.875Z,33.20
2019-05-19T15:02:48.763Z,36.00
2019-05-19T15:05:21.912Z,35.40
2019-05-19T15:07:54.809Z,33.80
2019-05-19T15:10:27.710Z,34.80
2019-05-19T15:13:00.670Z,32.00
2019-05-19T15:15:33.584Z,30.80
2019-05-19T15:18:06.823Z,33.00
2019-05-19T15:20:39.847Z,32.40
2019-05-19T15:23:12.752Z,32.20
2019-05-19T15:25:45.752Z,31.80
2019-05-19T15:28:18.769Z,34.40
2019-05-19T15:30:51.710Z,31.20
2019-05-19T15:33:25.063Z,32.80
2019-05-19T15:35:57.990Z,36.20
2019-05-19T15:38:31.002Z,34.20
2019-05-19T15:41:04.082Z,37.20
2019-05-19T15:43:37.063Z,33.40
2019-05-19T15:46:10.080Z,35.40
2019-05-19T15:48:43.051Z,36.40
2019-05-19T15:51:28.021Z,34.60
2019-05-19T15:53:50.654Z,34.20
2019-05-19T15:56:23.523Z,33.20
2019-05-19T15:58:56.429Z,35.80
2019-05-19T16:01:29.458Z,33.80
2019-05-19T16:04:02.524Z,29.60
2019-05-19T16:06:38.959Z,35.80
2019-05-19T16:09:10.252Z,31.40
2019-05-19T16:11:43.255Z,33.20
2019-05-19T16:14:16.182Z,33.20
2019-05-19T16:16:49.114Z,34.60
2019-05-19T16:19:22.067Z,34.80
2019-05-19T16:21:54.998Z,30.80
2019-05-19T16:24:27.952Z,32.40
2019-05-19T16:27:00.909Z,31.00
2019-05-19T16:29:33.774Z,33.40
2019-05-19T16:32:06.687Z,19.60
2019-05-19T16:34:39.682Z,17.00
2019-05-19T16:37:12.660Z,17.20
2019-05-19T16:39:45.606Z,17.40
2019-05-19T16:42:18.555Z,17.20
2019-05-19T16:44:51.876Z,21.80
2019-05-19T16:47:24.758Z,23.40
2019-05-19T16:49:57.670Z,20.00
2019-05-19T16:52:31.039Z,27.40
2019-05-19T16:55:04.278Z,21.20
2019-05-19T16:57:37.515Z,21.80
2019-05-19T17:00:10.838Z,27.40
2019-05-19T17:02:43.733Z,20.20
2019-05-19T17:05:16.745Z,22.80
2019-05-19T17:07:49.937Z,25.60
2019-05-19T17:10:23.010Z,26.40
2019-05-19T17:12:55.920Z,24.60
2019-05-19T17:15:28.814Z,27.00
2019-05-19T17:18:01.841Z,30.00
2019-05-19T17:20:34.739Z,28.00
2019-05-19T17:23:07.684Z,29.40
2019-05-19T17:25:40.628Z,29.20
2019-05-19T17:28:13.514Z,24.40
2019-05-19T17:30:46.728Z,27.80
2019-05-19T17:33:19.736Z,24.80
2019-05-19T17:35:53.460Z,16.00
2019-05-19T17:38:26.453Z,18.80
2019-05-19T17:40:59.359Z,17.40
2019-05-19T17:43:32.350Z,17.60
2019-05-19T17:46:05.381Z,21.60
2019-05-19T17:48:38.290Z,22.60
2019-05-19T17:51:11.187Z,22.80
2019-05-19T17:53:44.158Z,22.60
2019-05-19T17:56:17.535Z,20.60
2019-05-19T17:58:51.420Z,22.00
2019-05-19T18:01:24.417Z,21.80
2019-05-19T18:03:57.406Z,21.80
2019-05-19T18:06:30.292Z,20.40
2019-05-19T18:09:04.239Z,22.60
2019-05-19T18:11:37.138Z,22.60
2019-05-19T18:14:10.054Z,19.00
2019-05-19T18:16:42.941Z,23.00
2019-05-19T18:19:15.874Z,22.80
2019-05-19T18:21:48.761Z,24.60
2019-05-19T18:24:21.753Z,18.60
2019-05-19T18:26:54.757Z,18.60
2019-05-19T18:29:31.383Z,20.00
2019-05-19T18:32:03.027Z,17.80
2019-05-19T18:34:36.291Z,21.40
2019-05-19T18:37:09.215Z,22.60
2019-05-19T18:39:42.135Z,20.80
2019-05-19T18:42:15.050Z,19.20
2019-05-19T18:44:47.928Z,21.00
2019-05-19T18:47:20.808Z,18.60
2019-05-19T18:49:53.737Z,26.20
2019-05-19T18:52:26.654Z,22.80
2019-05-19T18:54:59.569Z,21.40
2019-05-19T18:57:32.469Z,19.00
2019-05-19T19:00:05.944Z,22.00
2019-05-19T19:02:39.029Z,22.60
2019-05-19T19:05:12.118Z,24.20
2019-05-19T19:07:45.009Z,25.80
2019-05-19T19:10:18.213Z,23.00
2019-05-19T19:12:51.126Z,27.00
2019-05-19T19:15:24.146Z,25.80
2019-05-19T19:17:57.115Z,26.00
2019-05-19T19:20:30.103Z,22.00
2019-05-19T19:23:03.365Z,20.80
2019-05-19T19:25:36.360Z,23.60
2019-05-19T19:28:09.290Z,24.40
2019-05-19T19:30:42.619Z,26.20
2019-05-19T19:33:15.609Z,25.80
2019-05-19T19:35:48.540Z,22.60
2019-05-19T19:38:21.504Z,26.80
2019-05-19T19:40:54.686Z,26.20
2019-05-19T19:43:27.596Z,29.20
2019-05-19T19:46:00.490Z,27.60
2019-05-19T19:48:33.793Z,26.20
2019-05-19T19:51:06.821Z,24.20
2019-05-19T19:53:39.757Z,25.80
2019-05-19T19:56:12.613Z,25.40
2019-05-19T19:58:45.623Z,29.60
2019-05-19T20:01:18.795Z,29.20
2019-05-19T20:03:51.710Z,28.20
2019-05-19T20:06:24.656Z,27.20
2019-05-19T20:08:57.753Z,29.00
2019-05-19T20:11:30.768Z,31.20
2019-05-19T20:14:04.024Z,31.40
2019-05-19T20:16:36.897Z,31.20
2019-05-19T20:19:09.885Z,29.60
2019-05-19T20:21:43.108Z,26.60
2019-05-19T20:24:16.224Z,27.60
2019-05-19T20:26:49.369Z,30.80
2019-05-19T20:29:22.364Z,28.60
2019-05-19T20:31:55.312Z,31.20
2019-05-19T20:34:28.896Z,31.00
2019-05-19T20:37:02.235Z,34.80
2019-05-19T20:39:35.131Z,34.40
2019-05-19T20:42:08.051Z,35.20
2019-05-19T20:44:41.191Z,35.80
2019-05-19T20:47:14.560Z,39.40
2019-05-19T20:49:47.603Z,38.80
2019-05-19T20:52:20.541Z,39.20
2019-05-19T20:54:53.745Z,39.60
2019-05-19T20:57:26.676Z,39.60
2019-05-19T21:00:00.010Z,38.60
2019-05-19T21:02:33.049Z,40.00
2019-05-19T21:05:06.561Z,43.60
2019-05-19T21:07:39.567Z,41.60
2019-05-19T21:10:12.598Z,42.20
2019-05-19T21:12:45.600Z,41.60
2019-05-19T21:15:18.582Z,42.20
2019-05-19T21:17:51.514Z,42.40
2019-05-19T21:20:24.889Z,42.60
2019-05-19T21:22:57.829Z,41.20
2019-05-19T21:25:30.818Z,43.80
2019-05-19T21:28:03.965Z,40.60
2019-05-19T21:30:37.299Z,44.40
2019-05-19T21:33:10.214Z,43.80
2019-05-19T21:35:43.119Z,41.60
2019-05-19T21:38:16.064Z,43.20
2019-05-19T21:40:49.002Z,41.80
2019-05-19T21:43:21.959Z,41.80
2019-05-19T21:45:54.967Z,43.20
2019-05-19T21:48:27.988Z,41.60
2019-05-19T21:51:00.998Z,44.00
2019-05-19T21:53:33.951Z,41.60
2019-05-19T21:56:07.007Z,43.40
2019-05-19T21:58:40.193Z,43.80
2019-05-19T22:01:22.637Z,45.60
2019-05-19T22:03:48.042Z,46.00
2019-05-19T22:06:20.991Z,47.80
2019-05-19T22:08:53.944Z,47.00
2019-05-19T22:11:26.973Z,48.40
2019-05-19T22:13:59.864Z,47.00
2019-05-19T22:16:32.853Z,49.60
2019-05-19T22:19:05.902Z,51.40
2019-05-19T22:21:39.140Z,51.00
2019-05-19T22:24:12.086Z,50.60
2019-05-19T22:26:45.192Z,51.20
2019-05-19T22:29:18.153Z,54.80
2019-05-19T22:31:51.567Z,50.00
2019-05-19T22:34:24.719Z,51.20
2019-05-19T22:36:57.991Z,50.60
2019-05-19T22:39:30.911Z,51.40
2019-05-19T22:42:03.995Z,52.80
2019-05-19T22:44:37.287Z,50.40
2019-05-19T22:47:10.240Z,52.60
2019-05-19T22:49:43.239Z,53.40
2019-05-19T22:52:16.203Z,54.60
2019-05-19T22:54:49.243Z,54.60
2019-05-19T22:57:23.973Z,51.00
2019-05-19T22:59:57.006Z,51.40
2019-05-19T23:02:29.969Z,51.80
2019-05-19T23:05:03.366Z,56.80
2019-05-19T23:07:36.793Z,52.00
2019-05-19T23:10:10.129Z,57.40
2019-05-19T23:12:43.188Z,58.40
2019-05-19T23:15:16.260Z,53.40
2019-05-19T23:17:49.205Z,51.80
2019-05-19T23:20:22.238Z,54.00
2019-05-19T23:22:55.496Z,52.00
2019-05-19T23:25:28.346Z,53.00
2019-05-19T23:28:01.490Z,53.40
2019-05-19T23:30:34.420Z,53.00
2019-05-19T23:33:07.290Z,49.80
2019-05-19T23:35:40.432Z,51.00
2019-05-19T23:38:13.298Z,51.20
2019-05-19T23:40:46.247Z,52.60
2019-05-19T23:43:19.383Z,51.60
2019-05-19T23:45:52.316Z,52.20
2019-05-19T23:48:25.662Z,49.80
2019-05-19T23:50:58.523Z,47.60
2019-05-19T23:53:31.479Z,51.60
2019-05-19T23:56:05.120Z,49.80
2019-05-19T23:58:37.958Z,49.60
